sensor_id;sensor_type;location;lat;lon;timestamp;P1;durP1;ratioP1;P2;durP2;ratioP2
62058;SDS011;48017;51.064;7.014;2022-08-19T00:01:38;12.02;;;9.65;;
62058;SDS011;48017;51.064;7.014;2022-08-19T00:04:06;11.30;;;9.60;;
62058;SDS011;48017;51.064;7.014;2022-08-19T00:06:34;12.50;;;9.70;;
62058;SDS011;48017;51.064;7.014;2022-08-19T00:09:02;11.73;;;10.30;;
62058;SDS011;48017;51.064;7.014;2022-08-19T00:11:28;11.35;;;9.90;;
62058;SDS011;48017;51.064;7.014;2022-08-19T00:13:54;11.15;;;10.05;;
62058;SDS011;48017;51.064;7.014;2022-08-19T00:16:21;14.25;;;10.32;;
62058;SDS011;48017;51.064;7.014;2022-08-19T00:18:47;11.10;;;9.90;;
62058;SDS011;48017;51.064;7.014;2022-08-19T00:21:13;13.00;;;10.45;;
62058;SDS011;48017;51.064;7.014;2022-08-19T00:23:39;10.75;;;9.65;;
62058;SDS011;48017;51.064;7.014;2022-08-19T00:26:05;12.05;;;9.98;;
62058;SDS011;48017;51.064;7.014;2022-08-19T00:28:31;11.40;;;9.93;;
62058;SDS011;48017;51.064;7.014;2022-08-19T00:30:58;11.13;;;10.05;;
62058;SDS011;48017;51.064;7.014;2022-08-19T00:33:24;11.40;;;10.23;;
62058;SDS011;48017;51.064;7.014;2022-08-19T00:35:50;11.10;;;10.00;;
62058;SDS011;48017;51.064;7.014;2022-08-19T00:38:15;13.27;;;10.25;;
62058;SDS011;48017;51.064;7.014;2022-08-19T00:40:43;11.68;;;10.52;;
62058;SDS011;48017;51.064;7.014;2022-08-19T00:43:11;11.35;;;10.25;;
62058;SDS011;48017;51.064;7.014;2022-08-19T00:45:38;10.77;;;9.60;;
62058;SDS011;48017;51.064;7.014;2022-08-19T00:48:06;11.30;;;10.20;;
62058;SDS011;48017;51.064;7.014;2022-08-19T00:50:32;12.45;;;10.15;;
62058;SDS011;48017;51.064;7.014;2022-08-19T00:52:58;11.85;;;10.20;;
62058;SDS011;48017;51.064;7.014;2022-08-19T00:55:25;11.00;;;9.90;;
62058;SDS011;48017;51.064;7.014;2022-08-19T00:58:00;10.35;;;9.35;;
62058;SDS011;48017;51.064;7.014;2022-08-19T01:00:29;12.27;;;10.18;;
62058;SDS011;48017;51.064;7.014;2022-08-19T01:05:23;10.82;;;9.73;;
62058;SDS011;48017;51.064;7.014;2022-08-19T01:07:54;11.75;;;9.70;;
62058;SDS011;48017;51.064;7.014;2022-08-19T01:12:48;11.23;;;10.10;;
62058;SDS011;48017;51.064;7.014;2022-08-19T01:15:17;11.77;;;9.23;;
62058;SDS011;48017;51.064;7.014;2022-08-19T01:17:46;10.60;;;9.52;;
62058;SDS011;48017;51.064;7.014;2022-08-19T01:20:13;12.35;;;9.55;;
62058;SDS011;48017;51.064;7.014;2022-08-19T01:22:49;13.57;;;9.98;;
62058;SDS011;48017;51.064;7.014;2022-08-19T01:25:17;11.57;;;9.35;;
62058;SDS011;48017;51.064;7.014;2022-08-19T01:27:45;12.93;;;9.32;;
62058;SDS011;48017;51.064;7.014;2022-08-19T01:30:15;10.27;;;9.27;;
62058;SDS011;48017;51.064;7.014;2022-08-19T01:32:45;12.95;;;9.45;;
62058;SDS011;48017;51.064;7.014;2022-08-19T01:35:11;10.75;;;9.63;;
62058;SDS011;48017;51.064;7.014;2022-08-19T01:37:41;12.50;;;9.30;;
62058;SDS011;48017;51.064;7.014;2022-08-19T01:40:15;10.63;;;9.35;;
62058;SDS011;48017;51.064;7.014;2022-08-19T01:42:41;10.27;;;9.20;;
62058;SDS011;48017;51.064;7.014;2022-08-19T01:45:07;11.02;;;9.32;;
62058;SDS011;48017;51.064;7.014;2022-08-19T01:47:36;10.05;;;9.05;;
62058;SDS011;48017;51.064;7.014;2022-08-19T01:50:03;9.93;;;8.93;;
62058;SDS011;48017;51.064;7.014;2022-08-19T01:52:30;13.65;;;9.38;;
62058;SDS011;48017;51.064;7.014;2022-08-19T01:54:55;10.82;;;9.40;;
62058;SDS011;48017;51.064;7.014;2022-08-19T01:57:21;10.40;;;9.20;;
62058;SDS011;48017;51.064;7.014;2022-08-19T01:59:46;10.63;;;9.27;;
62058;SDS011;48017;51.064;7.014;2022-08-19T02:02:12;10.55;;;9.45;;
62058;SDS011;48017;51.064;7.014;2022-08-19T02:04:38;11.10;;;9.80;;
62058;SDS011;48017;51.064;7.014;2022-08-19T02:07:04;12.50;;;9.80;;
62058;SDS011;48017;51.064;7.014;2022-08-19T02:09:31;12.83;;;9.40;;
62058;SDS011;48017;51.064;7.014;2022-08-19T02:11:57;10.52;;;9.43;;
62058;SDS011;48017;51.064;7.014;2022-08-19T02:14:23;13.95;;;10.30;;
62058;SDS011;48017;51.064;7.014;2022-08-19T02:16:48;10.23;;;8.88;;
62058;SDS011;48017;51.064;7.014;2022-08-19T02:19:14;12.75;;;9.88;;
62058;SDS011;48017;51.064;7.014;2022-08-19T02:21:39;11.40;;;9.80;;
62058;SDS011;48017;51.064;7.014;2022-08-19T02:24:05;11.38;;;9.75;;
62058;SDS011;48017;51.064;7.014;2022-08-19T02:26:31;10.82;;;9.43;;
62058;SDS011;48017;51.064;7.014;2022-08-19T02:28:57;10.63;;;9.57;;
62058;SDS011;48017;51.064;7.014;2022-08-19T02:31:24;11.70;;;10.35;;
62058;SDS011;48017;51.064;7.014;2022-08-19T02:33:52;12.45;;;10.23;;
62058;SDS011;48017;51.064;7.014;2022-08-19T02:36:18;12.32;;;9.70;;
62058;SDS011;48017;51.064;7.014;2022-08-19T02:38:44;10.25;;;9.18;;
62058;SDS011;48017;51.064;7.014;2022-08-19T02:41:17;12.70;;;10.38;;
62058;SDS011;48017;51.064;7.014;2022-08-19T02:43:44;10.95;;;9.82;;
62058;SDS011;48017;51.064;7.014;2022-08-19T02:46:15;10.57;;;9.50;;
62058;SDS011;48017;51.064;7.014;2022-08-19T02:48:46;10.27;;;9.25;;
62058;SDS011;48017;51.064;7.014;2022-08-19T02:51:17;10.98;;;9.63;;
62058;SDS011;48017;51.064;7.014;2022-08-19T02:53:55;10.60;;;9.50;;
62058;SDS011;48017;51.064;7.014;2022-08-19T02:56:21;10.75;;;9.57;;
62058;SDS011;48017;51.064;7.014;2022-08-19T02:58:49;12.50;;;10.02;;
62058;SDS011;48017;51.064;7.014;2022-08-19T03:01:24;11.65;;;10.15;;
62058;SDS011;48017;51.064;7.014;2022-08-19T03:03:55;10.63;;;9.52;;
62058;SDS011;48017;51.064;7.014;2022-08-19T03:06:22;14.63;;;10.40;;
62058;SDS011;48017;51.064;7.014;2022-08-19T03:08:48;48.13;;;33.85;;
62058;SDS011;48017;51.064;7.014;2022-08-19T03:11:15;29.45;;;19.50;;
62058;SDS011;48017;51.064;7.014;2022-08-19T03:13:42;26.42;;;15.77;;
62058;SDS011;48017;51.064;7.014;2022-08-19T03:16:08;21.45;;;13.57;;
62058;SDS011;48017;51.064;7.014;2022-08-19T03:18:34;14.27;;;10.95;;
62058;SDS011;48017;51.064;7.014;2022-08-19T03:20:59;13.80;;;10.82;;
62058;SDS011;48017;51.064;7.014;2022-08-19T03:23:25;16.73;;;11.10;;
62058;SDS011;48017;51.064;7.014;2022-08-19T03:25:51;13.18;;;11.35;;
62058;SDS011;48017;51.064;7.014;2022-08-19T03:28:18;17.88;;;12.77;;
62058;SDS011;48017;51.064;7.014;2022-08-19T03:30:56;15.25;;;12.07;;
62058;SDS011;48017;51.064;7.014;2022-08-19T03:33:26;12.75;;;10.25;;
62058;SDS011;48017;51.064;7.014;2022-08-19T03:35:59;13.98;;;10.05;;
62058;SDS011;48017;51.064;7.014;2022-08-19T03:38:36;13.57;;;10.02;;
62058;SDS011;48017;51.064;7.014;2022-08-19T03:41:08;11.65;;;9.98;;
62058;SDS011;48017;51.064;7.014;2022-08-19T03:43:39;10.90;;;9.80;;
62058;SDS011;48017;51.064;7.014;2022-08-19T03:46:08;11.35;;;10.25;;
62058;SDS011;48017;51.064;7.014;2022-08-19T03:48:38;13.35;;;11.95;;
62058;SDS011;48017;51.064;7.014;2022-08-19T03:51:05;27.05;;;18.95;;
62058;SDS011;48017;51.064;7.014;2022-08-19T03:53:32;14.27;;;12.20;;
62058;SDS011;48017;51.064;7.014;2022-08-19T03:55:59;12.18;;;10.98;;
62058;SDS011;48017;51.064;7.014;2022-08-19T03:58:26;15.32;;;11.18;;
62058;SDS011;48017;51.064;7.014;2022-08-19T04:00:55;12.45;;;11.07;;
62058;SDS011;48017;51.064;7.014;2022-08-19T04:03:22;12.82;;;11.52;;
62058;SDS011;48017;51.064;7.014;2022-08-19T04:05:49;12.70;;;11.48;;
62058;SDS011;48017;51.064;7.014;2022-08-19T04:08:14;12.93;;;11.25;;
62058;SDS011;48017;51.064;7.014;2022-08-19T04:10:44;13.27;;;11.57;;
62058;SDS011;48017;51.064;7.014;2022-08-19T04:13:09;12.00;;;10.80;;
62058;SDS011;48017;51.064;7.014;2022-08-19T04:15:38;12.63;;;11.32;;
62058;SDS011;48017;51.064;7.014;2022-08-19T04:18:06;12.07;;;10.88;;
62058;SDS011;48017;51.064;7.014;2022-08-19T04:20:41;11.85;;;10.60;;
62058;SDS011;48017;51.064;7.014;2022-08-19T04:23:08;11.98;;;10.77;;
62058;SDS011;48017;51.064;7.014;2022-08-19T04:25:38;13.75;;;10.70;;
62058;SDS011;48017;51.064;7.014;2022-08-19T04:28:07;12.93;;;11.30;;
62058;SDS011;48017;51.064;7.014;2022-08-19T04:30:42;14.20;;;12.10;;
62058;SDS011;48017;51.064;7.014;2022-08-19T04:33:10;14.50;;;11.05;;
62058;SDS011;48017;51.064;7.014;2022-08-19T04:35:39;12.90;;;11.32;;
62058;SDS011;48017;51.064;7.014;2022-08-19T04:38:06;12.60;;;11.30;;
62058;SDS011;48017;51.064;7.014;2022-08-19T04:40:32;13.40;;;11.63;;
62058;SDS011;48017;51.064;7.014;2022-08-19T04:43:16;13.00;;;11.70;;
62058;SDS011;48017;51.064;7.014;2022-08-19T04:45:44;14.15;;;12.05;;
62058;SDS011;48017;51.064;7.014;2022-08-19T04:48:11;19.45;;;13.18;;
62058;SDS011;48017;51.064;7.014;2022-08-19T04:50:39;14.63;;;12.57;;
62058;SDS011;48017;51.064;7.014;2022-08-19T04:53:06;17.58;;;13.38;;
62058;SDS011;48017;51.064;7.014;2022-08-19T04:55:32;28.63;;;13.32;;
62058;SDS011;48017;51.064;7.014;2022-08-19T04:57:57;21.25;;;13.52;;
62058;SDS011;48017;51.064;7.014;2022-08-19T05:00:23;18.42;;;13.95;;
62058;SDS011;48017;51.064;7.014;2022-08-19T05:02:48;23.63;;;14.52;;
62058;SDS011;48017;51.064;7.014;2022-08-19T05:05:14;15.90;;;13.88;;
62058;SDS011;48017;51.064;7.014;2022-08-19T05:07:40;20.75;;;16.02;;
62058;SDS011;48017;51.064;7.014;2022-08-19T05:10:06;21.90;;;16.90;;
62058;SDS011;48017;51.064;7.014;2022-08-19T05:12:32;36.92;;;17.83;;
62058;SDS011;48017;51.064;7.014;2022-08-19T05:14:58;21.08;;;17.58;;
62058;SDS011;48017;51.064;7.014;2022-08-19T05:17:25;20.02;;;17.00;;
62058;SDS011;48017;51.064;7.014;2022-08-19T05:19:51;19.43;;;17.50;;
62058;SDS011;48017;51.064;7.014;2022-08-19T05:22:35;21.80;;;17.73;;
62058;SDS011;48017;51.064;7.014;2022-08-19T05:25:03;22.52;;;17.90;;
62058;SDS011;48017;51.064;7.014;2022-08-19T05:27:33;20.38;;;18.02;;
62058;SDS011;48017;51.064;7.014;2022-08-19T05:29:59;27.10;;;17.75;;
62058;SDS011;48017;51.064;7.014;2022-08-19T05:32:25;20.48;;;18.00;;
62058;SDS011;48017;51.064;7.014;2022-08-19T05:34:50;45.85;;;20.80;;
62058;SDS011;48017;51.064;7.014;2022-08-19T05:37:16;51.38;;;23.42;;
62058;SDS011;48017;51.064;7.014;2022-08-19T05:39:42;55.42;;;22.80;;
62058;SDS011;48017;51.064;7.014;2022-08-19T05:42:09;31.00;;;21.52;;
62058;SDS011;48017;51.064;7.014;2022-08-19T05:44:40;27.17;;;21.20;;
62058;SDS011;48017;51.064;7.014;2022-08-19T05:47:09;25.48;;;20.80;;
62058;SDS011;48017;51.064;7.014;2022-08-19T05:49:36;26.02;;;21.73;;
62058;SDS011;48017;51.064;7.014;2022-08-19T05:52:05;27.98;;;21.23;;
62058;SDS011;48017;51.064;7.014;2022-08-19T05:54:33;31.15;;;22.65;;
62058;SDS011;48017;51.064;7.014;2022-08-19T05:57:00;35.60;;;24.13;;
62058;SDS011;48017;51.064;7.014;2022-08-19T05:59:26;34.08;;;24.17;;
62058;SDS011;48017;51.064;7.014;2022-08-19T06:01:51;31.48;;;26.65;;
62058;SDS011;48017;51.064;7.014;2022-08-19T06:06:51;33.75;;;29.92;;
62058;SDS011;48017;51.064;7.014;2022-08-19T06:09:18;41.17;;;31.58;;
62058;SDS011;48017;51.064;7.014;2022-08-19T06:11:46;40.70;;;30.65;;
62058;SDS011;48017;51.064;7.014;2022-08-19T06:14:24;40.63;;;29.55;;
62058;SDS011;48017;51.064;7.014;2022-08-19T06:16:53;35.00;;;29.38;;
62058;SDS011;48017;51.064;7.014;2022-08-19T06:19:20;40.03;;;30.60;;
62058;SDS011;48017;51.064;7.014;2022-08-19T06:21:47;40.10;;;33.25;;
62058;SDS011;48017;51.064;7.014;2022-08-19T06:24:16;43.95;;;33.83;;
62058;SDS011;48017;51.064;7.014;2022-08-19T06:26:45;43.50;;;34.88;;
62058;SDS011;48017;51.064;7.014;2022-08-19T06:29:12;43.03;;;35.03;;
62058;SDS011;48017;51.064;7.014;2022-08-19T06:31:43;47.15;;;35.15;;
62058;SDS011;48017;51.064;7.014;2022-08-19T06:34:09;50.10;;;37.47;;
62058;SDS011;48017;51.064;7.014;2022-08-19T06:36:37;43.72;;;36.22;;
62058;SDS011;48017;51.064;7.014;2022-08-19T06:39:08;44.40;;;34.83;;
62058;SDS011;48017;51.064;7.014;2022-08-19T06:41:39;42.80;;;34.42;;
62058;SDS011;48017;51.064;7.014;2022-08-19T06:44:07;49.30;;;35.42;;
62058;SDS011;48017;51.064;7.014;2022-08-19T06:46:33;39.58;;;34.75;;
62058;SDS011;48017;51.064;7.014;2022-08-19T06:48:59;45.67;;;34.60;;
62058;SDS011;48017;51.064;7.014;2022-08-19T06:51:24;47.75;;;34.50;;
62058;SDS011;48017;51.064;7.014;2022-08-19T06:53:51;44.55;;;34.83;;
62058;SDS011;48017;51.064;7.014;2022-08-19T06:56:19;41.08;;;33.90;;
62058;SDS011;48017;51.064;7.014;2022-08-19T06:58:47;38.00;;;33.28;;
62058;SDS011;48017;51.064;7.014;2022-08-19T07:01:16;43.05;;;34.38;;
62058;SDS011;48017;51.064;7.014;2022-08-19T07:03:42;42.22;;;34.78;;
62058;SDS011;48017;51.064;7.014;2022-08-19T07:06:09;40.85;;;33.15;;
62058;SDS011;48017;51.064;7.014;2022-08-19T07:08:37;42.50;;;34.42;;
62058;SDS011;48017;51.064;7.014;2022-08-19T07:11:09;39.30;;;34.40;;
62058;SDS011;48017;51.064;7.014;2022-08-19T07:13:36;43.83;;;35.55;;
62058;SDS011;48017;51.064;7.014;2022-08-19T07:16:03;42.28;;;34.20;;
62058;SDS011;48017;51.064;7.014;2022-08-19T07:18:30;44.20;;;34.30;;
62058;SDS011;48017;51.064;7.014;2022-08-19T07:21:05;44.45;;;34.05;;
62058;SDS011;48017;51.064;7.014;2022-08-19T07:23:35;44.25;;;34.15;;
62058;SDS011;48017;51.064;7.014;2022-08-19T07:26:05;42.63;;;32.78;;
62058;SDS011;48017;51.064;7.014;2022-08-19T07:28:36;42.40;;;34.50;;
62058;SDS011;48017;51.064;7.014;2022-08-19T07:31:07;40.35;;;35.05;;
62058;SDS011;48017;51.064;7.014;2022-08-19T07:33:34;39.70;;;32.10;;
62058;SDS011;48017;51.064;7.014;2022-08-19T07:36:02;41.47;;;31.55;;
62058;SDS011;48017;51.064;7.014;2022-08-19T07:38:30;35.28;;;30.35;;
62058;SDS011;48017;51.064;7.014;2022-08-19T07:40:55;36.15;;;30.52;;
62058;SDS011;48017;51.064;7.014;2022-08-19T07:43:21;33.55;;;27.27;;
62058;SDS011;48017;51.064;7.014;2022-08-19T07:45:49;53.15;;;31.05;;
62058;SDS011;48017;51.064;7.014;2022-08-19T07:48:15;50.15;;;34.15;;
62058;SDS011;48017;51.064;7.014;2022-08-19T07:50:41;39.17;;;28.35;;
62058;SDS011;48017;51.064;7.014;2022-08-19T07:53:06;34.00;;;27.80;;
62058;SDS011;48017;51.064;7.014;2022-08-19T07:55:31;32.80;;;27.23;;
62058;SDS011;48017;51.064;7.014;2022-08-19T07:57:57;37.53;;;27.52;;
62058;SDS011;48017;51.064;7.014;2022-08-19T08:00:22;39.03;;;28.52;;
62058;SDS011;48017;51.064;7.014;2022-08-19T08:02:48;35.25;;;26.25;;
62058;SDS011;48017;51.064;7.014;2022-08-19T08:05:13;35.35;;;25.95;;
62058;SDS011;48017;51.064;7.014;2022-08-19T08:07:57;33.35;;;26.50;;
62058;SDS011;48017;51.064;7.014;2022-08-19T08:10:41;30.85;;;26.30;;
62058;SDS011;48017;51.064;7.014;2022-08-19T08:13:06;28.60;;;24.77;;
62058;SDS011;48017;51.064;7.014;2022-08-19T08:15:32;32.33;;;25.52;;
62058;SDS011;48017;51.064;7.014;2022-08-19T08:17:57;30.63;;;24.65;;
62058;SDS011;48017;51.064;7.014;2022-08-19T08:20:23;30.85;;;24.48;;
62058;SDS011;48017;51.064;7.014;2022-08-19T08:22:49;29.02;;;23.30;;
62058;SDS011;48017;51.064;7.014;2022-08-19T08:25:34;30.02;;;23.38;;
62058;SDS011;48017;51.064;7.014;2022-08-19T08:30:27;30.40;;;23.17;;
62058;SDS011;48017;51.064;7.014;2022-08-19T08:32:54;28.23;;;23.10;;
62058;SDS011;48017;51.064;7.014;2022-08-19T08:35:20;29.40;;;23.38;;
62058;SDS011;48017;51.064;7.014;2022-08-19T08:37:48;28.98;;;24.23;;
62058;SDS011;48017;51.064;7.014;2022-08-19T08:40:29;27.05;;;21.98;;
62058;SDS011;48017;51.064;7.014;2022-08-19T08:43:09;29.13;;;23.15;;
62058;SDS011;48017;51.064;7.014;2022-08-19T08:46:00;28.20;;;23.70;;
62058;SDS011;48017;51.064;7.014;2022-08-19T08:48:39;34.00;;;23.85;;
62058;SDS011;48017;51.064;7.014;2022-08-19T08:51:14;32.67;;;27.08;;
62058;SDS011;48017;51.064;7.014;2022-08-19T08:53:43;36.28;;;26.13;;
62058;SDS011;48017;51.064;7.014;2022-08-19T08:56:11;33.20;;;26.92;;
62058;SDS011;48017;51.064;7.014;2022-08-19T08:58:43;43.30;;;28.35;;
62058;SDS011;48017;51.064;7.014;2022-08-19T09:01:15;31.25;;;26.45;;
62058;SDS011;48017;51.064;7.014;2022-08-19T09:03:41;36.88;;;29.02;;
62058;SDS011;48017;51.064;7.014;2022-08-19T09:06:13;37.33;;;29.48;;
62058;SDS011;48017;51.064;7.014;2022-08-19T09:16:31;40.97;;;30.52;;
62058;SDS011;48017;51.064;7.014;2022-08-19T09:19:03;40.35;;;30.98;;
62058;SDS011;48017;51.064;7.014;2022-08-19T09:21:30;37.42;;;28.80;;
62058;SDS011;48017;51.064;7.014;2022-08-19T09:23:56;45.97;;;33.08;;
62058;SDS011;48017;51.064;7.014;2022-08-19T09:26:23;39.03;;;31.70;;
62058;SDS011;48017;51.064;7.014;2022-08-19T09:28:50;41.92;;;31.80;;
62058;SDS011;48017;51.064;7.014;2022-08-19T09:31:19;43.03;;;30.63;;
62058;SDS011;48017;51.064;7.014;2022-08-19T09:33:47;38.10;;;29.15;;
62058;SDS011;48017;51.064;7.014;2022-08-19T09:36:14;42.67;;;33.07;;
62058;SDS011;48017;51.064;7.014;2022-08-19T09:38:43;49.03;;;32.92;;
62058;SDS011;48017;51.064;7.014;2022-08-19T09:41:13;43.30;;;33.03;;
62058;SDS011;48017;51.064;7.014;2022-08-19T09:43:41;44.00;;;31.25;;
62058;SDS011;48017;51.064;7.014;2022-08-19T09:46:09;40.28;;;31.58;;
62058;SDS011;48017;51.064;7.014;2022-08-19T09:48:35;36.70;;;28.33;;
62058;SDS011;48017;51.064;7.014;2022-08-19T09:51:02;33.97;;;25.40;;
62058;SDS011;48017;51.064;7.014;2022-08-19T09:53:28;24.83;;;19.73;;
62058;SDS011;48017;51.064;7.014;2022-08-19T09:55:57;22.83;;;16.58;;
62058;SDS011;48017;51.064;7.014;2022-08-19T09:58:22;22.40;;;17.98;;
62058;SDS011;48017;51.064;7.014;2022-08-19T10:00:52;25.98;;;19.35;;
62058;SDS011;48017;51.064;7.014;2022-08-19T10:03:22;27.98;;;18.60;;
62058;SDS011;48017;51.064;7.014;2022-08-19T10:05:48;27.90;;;21.30;;
62058;SDS011;48017;51.064;7.014;2022-08-19T10:08:14;29.50;;;20.13;;
62058;SDS011;48017;51.064;7.014;2022-08-19T10:10:43;36.13;;;24.95;;
62058;SDS011;48017;51.064;7.014;2022-08-19T10:13:09;32.53;;;21.83;;
62058;SDS011;48017;51.064;7.014;2022-08-19T10:15:35;33.08;;;22.13;;
62058;SDS011;48017;51.064;7.014;2022-08-19T10:18:01;27.25;;;18.88;;
62058;SDS011;48017;51.064;7.014;2022-08-19T10:20:26;22.67;;;17.00;;
62058;SDS011;48017;51.064;7.014;2022-08-19T10:22:52;27.13;;;16.05;;
62058;SDS011;48017;51.064;7.014;2022-08-19T10:25:17;20.42;;;14.77;;
62058;SDS011;48017;51.064;7.014;2022-08-19T10:27:42;19.75;;;14.77;;
62058;SDS011;48017;51.064;7.014;2022-08-19T10:30:08;20.75;;;13.60;;
62058;SDS011;48017;51.064;7.014;2022-08-19T10:32:34;19.40;;;14.20;;
62058;SDS011;48017;51.064;7.014;2022-08-19T10:35:00;24.08;;;14.90;;
62058;SDS011;48017;51.064;7.014;2022-08-19T10:37:26;18.90;;;13.15;;
62058;SDS011;48017;51.064;7.014;2022-08-19T10:39:51;21.30;;;14.20;;
62058;SDS011;48017;51.064;7.014;2022-08-19T10:42:16;22.17;;;14.88;;
62058;SDS011;48017;51.064;7.014;2022-08-19T10:44:43;19.20;;;13.68;;
62058;SDS011;48017;51.064;7.014;2022-08-19T10:47:09;20.08;;;12.95;;
62058;SDS011;48017;51.064;7.014;2022-08-19T10:49:35;15.25;;;11.43;;
62058;SDS011;48017;51.064;7.014;2022-08-19T10:52:21;17.38;;;13.13;;
62058;SDS011;48017;51.064;7.014;2022-08-19T10:54:58;18.23;;;13.55;;
62058;SDS011;48017;51.064;7.014;2022-08-19T10:57:46;14.45;;;10.77;;
62058;SDS011;48017;51.064;7.014;2022-08-19T11:00:12;12.57;;;9.35;;
62058;SDS011;48017;51.064;7.014;2022-08-19T11:02:38;14.52;;;11.57;;
62058;SDS011;48017;51.064;7.014;2022-08-19T11:05:04;16.05;;;11.70;;
62058;SDS011;48017;51.064;7.014;2022-08-19T11:07:30;16.17;;;10.32;;
62058;SDS011;48017;51.064;7.014;2022-08-19T11:09:55;13.25;;;9.93;;
62058;SDS011;48017;51.064;7.014;2022-08-19T11:12:21;15.23;;;9.75;;
62058;SDS011;48017;51.064;7.014;2022-08-19T11:14:46;13.82;;;10.40;;
62058;SDS011;48017;51.064;7.014;2022-08-19T11:17:15;13.65;;;9.30;;
62058;SDS011;48017;51.064;7.014;2022-08-19T11:19:41;16.65;;;10.80;;
62058;SDS011;48017;51.064;7.014;2022-08-19T11:22:08;20.73;;;12.23;;
62058;SDS011;48017;51.064;7.014;2022-08-19T11:24:34;16.35;;;11.98;;
62058;SDS011;48017;51.064;7.014;2022-08-19T11:27:02;19.53;;;11.83;;
62058;SDS011;48017;51.064;7.014;2022-08-19T11:29:30;15.95;;;10.82;;
62058;SDS011;48017;51.064;7.014;2022-08-19T11:31:57;14.05;;;11.07;;
62058;SDS011;48017;51.064;7.014;2022-08-19T11:34:24;24.33;;;12.32;;
62058;SDS011;48017;51.064;7.014;2022-08-19T11:36:52;21.13;;;11.73;;
62058;SDS011;48017;51.064;7.014;2022-08-19T11:39:20;18.33;;;11.00;;
62058;SDS011;48017;51.064;7.014;2022-08-19T11:41:46;14.70;;;10.07;;
62058;SDS011;48017;51.064;7.014;2022-08-19T11:44:13;13.15;;;9.70;;
62058;SDS011;48017;51.064;7.014;2022-08-19T11:46:39;14.90;;;10.50;;
62058;SDS011;48017;51.064;7.014;2022-08-19T11:49:06;23.02;;;11.65;;
62058;SDS011;48017;51.064;7.014;2022-08-19T11:51:32;17.27;;;11.45;;
62058;SDS011;48017;51.064;7.014;2022-08-19T11:53:59;12.93;;;9.80;;
62058;SDS011;48017;51.064;7.014;2022-08-19T11:56:26;10.60;;;9.50;;
62058;SDS011;48017;51.064;7.014;2022-08-19T11:58:53;13.00;;;9.23;;
62058;SDS011;48017;51.064;7.014;2022-08-19T12:01:21;13.20;;;9.75;;
62058;SDS011;48017;51.064;7.014;2022-08-19T12:03:48;14.13;;;8.98;;
62058;SDS011;48017;51.064;7.014;2022-08-19T12:06:17;12.45;;;7.63;;
62058;SDS011;48017;51.064;7.014;2022-08-19T12:08:44;14.68;;;8.77;;
62058;SDS011;48017;51.064;7.014;2022-08-19T12:11:11;13.98;;;8.02;;
62058;SDS011;48017;51.064;7.014;2022-08-19T12:13:38;9.80;;;7.68;;
62058;SDS011;48017;51.064;7.014;2022-08-19T12:16:11;10.82;;;7.20;;
62058;SDS011;48017;51.064;7.014;2022-08-19T12:18:40;11.35;;;7.05;;
62058;SDS011;48017;51.064;7.014;2022-08-19T12:21:08;11.27;;;7.85;;
62058;SDS011;48017;51.064;7.014;2022-08-19T12:23:36;8.23;;;6.60;;
62058;SDS011;48017;51.064;7.014;2022-08-19T12:26:02;8.30;;;7.40;;
62058;SDS011;48017;51.064;7.014;2022-08-19T12:28:27;8.60;;;6.78;;
62058;SDS011;48017;51.064;7.014;2022-08-19T12:30:53;8.60;;;6.32;;
62058;SDS011;48017;51.064;7.014;2022-08-19T12:33:19;14.27;;;6.43;;
62058;SDS011;48017;51.064;7.014;2022-08-19T12:35:48;9.80;;;6.00;;
62058;SDS011;48017;51.064;7.014;2022-08-19T12:38:15;10.80;;;5.68;;
62058;SDS011;48017;51.064;7.014;2022-08-19T12:40:41;10.85;;;6.18;;
62058;SDS011;48017;51.064;7.014;2022-08-19T12:43:09;10.02;;;6.47;;
62058;SDS011;48017;51.064;7.014;2022-08-19T12:45:36;9.90;;;5.10;;
62058;SDS011;48017;51.064;7.014;2022-08-19T12:48:02;8.88;;;5.75;;
62058;SDS011;48017;51.064;7.014;2022-08-19T12:50:29;6.68;;;5.63;;
62058;SDS011;48017;51.064;7.014;2022-08-19T12:52:55;7.57;;;5.80;;
62058;SDS011;48017;51.064;7.014;2022-08-19T12:55:21;9.80;;;6.37;;
62058;SDS011;48017;51.064;7.014;2022-08-19T12:57:47;13.43;;;5.88;;
62058;SDS011;48017;51.064;7.014;2022-08-19T13:00:14;10.40;;;5.50;;
62058;SDS011;48017;51.064;7.014;2022-08-19T13:02:45;13.50;;;6.90;;
62058;SDS011;48017;51.064;7.014;2022-08-19T13:05:13;13.20;;;7.10;;
62058;SDS011;48017;51.064;7.014;2022-08-19T13:07:41;12.23;;;7.15;;
62058;SDS011;48017;51.064;7.014;2022-08-19T13:10:11;8.05;;;5.85;;
62058;SDS011;48017;51.064;7.014;2022-08-19T13:12:40;10.23;;;7.80;;
62058;SDS011;48017;51.064;7.014;2022-08-19T13:15:06;13.45;;;7.03;;
62058;SDS011;48017;51.064;7.014;2022-08-19T13:19:59;7.67;;;6.20;;
62058;SDS011;48017;51.064;7.014;2022-08-19T13:22:24;8.55;;;5.90;;
62058;SDS011;48017;51.064;7.014;2022-08-19T13:24:50;9.30;;;5.90;;
62058;SDS011;48017;51.064;7.014;2022-08-19T13:27:15;8.80;;;5.50;;
62058;SDS011;48017;51.064;7.014;2022-08-19T13:29:41;9.70;;;5.20;;
62058;SDS011;48017;51.064;7.014;2022-08-19T13:32:25;8.48;;;5.70;;
62058;SDS011;48017;51.064;7.014;2022-08-19T13:35:09;15.55;;;6.10;;
62058;SDS011;48017;51.064;7.014;2022-08-19T13:37:35;20.60;;;5.82;;
62058;SDS011;48017;51.064;7.014;2022-08-19T13:40:07;13.60;;;5.53;;
62058;SDS011;48017;51.064;7.014;2022-08-19T13:42:40;7.90;;;5.22;;
62058;SDS011;48017;51.064;7.014;2022-08-19T13:45:05;7.95;;;5.00;;
62058;SDS011;48017;51.064;7.014;2022-08-19T13:47:32;8.77;;;4.47;;
62058;SDS011;48017;51.064;7.014;2022-08-19T13:52:25;7.67;;;5.07;;
62058;SDS011;48017;51.064;7.014;2022-08-19T13:54:50;6.82;;;5.00;;
62058;SDS011;48017;51.064;7.014;2022-08-19T13:57:16;10.55;;;4.65;;
62058;SDS011;48017;51.064;7.014;2022-08-19T13:59:41;6.78;;;4.10;;
62058;SDS011;48017;51.064;7.014;2022-08-19T14:02:07;16.27;;;4.80;;
62058;SDS011;48017;51.064;7.014;2022-08-19T14:04:32;8.85;;;5.80;;
62058;SDS011;48017;51.064;7.014;2022-08-19T14:06:57;11.45;;;5.18;;
62058;SDS011;48017;51.064;7.014;2022-08-19T14:09:23;11.98;;;4.97;;
62058;SDS011;48017;51.064;7.014;2022-08-19T14:11:48;30.98;;;15.70;;
62058;SDS011;48017;51.064;7.014;2022-08-19T14:14:15;10.95;;;4.45;;
62058;SDS011;48017;51.064;7.014;2022-08-19T14:16:41;16.10;;;3.92;;
62058;SDS011;48017;51.064;7.014;2022-08-19T14:19:06;16.52;;;5.53;;
62058;SDS011;48017;51.064;7.014;2022-08-19T14:21:32;7.35;;;4.47;;
62058;SDS011;48017;51.064;7.014;2022-08-19T14:23:58;7.72;;;3.80;;
62058;SDS011;48017;51.064;7.014;2022-08-19T14:26:23;13.77;;;3.88;;
62058;SDS011;48017;51.064;7.014;2022-08-19T14:28:49;7.57;;;4.18;;
62058;SDS011;48017;51.064;7.014;2022-08-19T14:31:15;9.73;;;4.40;;
62058;SDS011;48017;51.064;7.014;2022-08-19T14:33:44;6.38;;;4.20;;
62058;SDS011;48017;51.064;7.014;2022-08-19T14:36:10;9.63;;;4.55;;
62058;SDS011;48017;51.064;7.014;2022-08-19T14:38:36;7.57;;;4.28;;
62058;SDS011;48017;51.064;7.014;2022-08-19T14:41:20;6.32;;;3.88;;
62058;SDS011;48017;51.064;7.014;2022-08-19T14:43:48;24.98;;;14.38;;
62058;SDS011;48017;51.064;7.014;2022-08-19T14:46:16;11.88;;;4.10;;
62058;SDS011;48017;51.064;7.014;2022-08-19T14:48:45;5.72;;;3.60;;
62058;SDS011;48017;51.064;7.014;2022-08-19T14:51:12;9.32;;;4.85;;
62058;SDS011;48017;51.064;7.014;2022-08-19T14:53:37;16.33;;;7.40;;
62058;SDS011;48017;51.064;7.014;2022-08-19T14:56:10;8.98;;;3.70;;